Terminal Aerodrome Forecast
Issued by NWS Omaha/Valley, NE

Home | Current Version | Previous Version | Graphics & Text | Print | Product List | Glossary On
Versions: 1 2 3 4 5 6 7 8 9 10 11 12 13 14 15 16 17 18 19 20 21 22 23 24 25 26 27 28 29 30 31 32 33 34 35 36
000
FTUS43 KOAX 281457 AAC
TAFOFK
TAF AMD
KOFK 281457Z 2815/2912 35008KT P6SM VCTS SCT010CB BKN015 OVC040
     FM281600 34012KT P6SM VCSH SCT009 BKN050
     FM281800 33014G22KT P6SM SCT050
     FM290000 33006KT P6SM SCT250=

USA.gov is the U.S. government's official web portal to all federal, state and local government web resources and services.